Major Vieira, Brazil
Current Conditions -  °F | °C
As of 1:00 AM on Thursday 27 Nov 2014 (Local Time) from SBCT Reporting Station
Broken Clouds Broken Clouds  
Wind Chill: 66°   Ceiling: 600
Heat Index: 66°   Visibility: 6mi
Dew Point: 64°   Wind: 8mph
Humidity: 94%   Direction: 110°ESE
Pressure: 29.97"   Gusts: NA
Location:  26.37°S, 50.33°W
Report Text: SBCT 270300Z 11007KT 9999 BKN006 19/18 Q1015
Loading
Personal Weather Stations






























Interactive Weather Map New forecast layout! Learn more

10-Day Weather Forecast

Advertisements
Track Severe Weather on mobile